createdAt,value
2019-05-17T00:00:38.411Z,94581.64
2019-05-17T00:03:10.636Z,94581.30
2019-05-17T00:05:42.462Z,94580.22
2019-05-17T00:08:16.501Z,94576.70
2019-05-17T00:10:47.639Z,94571.71
2019-05-17T00:13:19.394Z,94569.62
2019-05-17T00:15:51.212Z,94575.02
2019-05-17T00:18:22.883Z,94571.99
2019-05-17T00:20:56.998Z,94576.48
2019-05-17T00:23:28.165Z,94576.53
2019-05-17T00:26:00.133Z,94584.83
2019-05-17T00:28:31.722Z,94581.93
2019-05-17T00:31:03.553Z,94586.19
2019-05-17T00:33:36.694Z,94590.41
2019-05-17T00:36:09.807Z,94589.81
2019-05-17T00:38:48.412Z,94590.48
2019-05-17T00:41:17.481Z,94587.47
2019-05-17T00:43:47.206Z,94589.97
2019-05-17T00:46:18.805Z,94589.52
2019-05-17T00:48:50.668Z,94590.20
2019-05-17T00:51:22.462Z,94581.69
2019-05-17T00:53:56.248Z,94591.78
2019-05-17T00:56:27.996Z,94588.80
2019-05-17T00:58:59.794Z,94578.75
2019-05-17T01:01:31.379Z,94579.34
2019-05-17T01:04:02.956Z,94570.55
2019-05-17T01:06:34.791Z,94579.42
2019-05-17T01:09:07.965Z,94579.77
2019-05-17T01:11:38.771Z,94582.35
2019-05-17T01:14:10.555Z,94580.98
2019-05-17T01:16:42.863Z,94574.53
2019-05-17T01:19:16.415Z,94579.34
2019-05-17T01:21:47.995Z,94576.42
2019-05-17T01:24:19.846Z,94575.58
2019-05-17T01:26:51.637Z,94573.03
2019-05-17T01:29:23.452Z,94573.20
2019-05-17T01:31:57.072Z,94568.12
2019-05-17T01:34:28.954Z,94570.80
2019-05-17T01:37:00.950Z,94571.08
2019-05-17T01:39:33.617Z,94567.34
2019-05-17T01:42:06.843Z,94560.69
2019-05-17T01:44:37.565Z,94566.75
2019-05-17T01:47:09.141Z,94566.62
2019-05-17T01:49:40.755Z,94565.81
2019-05-17T01:52:12.456Z,94569.23
2019-05-17T01:54:44.275Z,94563.13
2019-05-17T01:57:16.825Z,94569.83
2019-05-17T01:59:48.760Z,94559.88
2019-05-17T02:02:26.994Z,94565.64
2019-05-17T02:04:59.226Z,94564.17
2019-05-17T02:07:30.669Z,94565.36
2019-05-17T02:10:02.520Z,94557.65
2019-05-17T02:12:34.224Z,94559.50
2019-05-17T02:15:06.998Z,94557.76
2019-05-17T02:17:38.631Z,94561.95
2019-05-17T02:20:11.348Z,94552.91
2019-05-17T02:22:47.466Z,94553.60
2019-05-17T02:25:19.813Z,94554.13
2019-05-17T02:27:52.322Z,94551.06
2019-05-17T02:30:24.280Z,94548.62
2019-05-17T02:32:56.269Z,94551.02
2019-05-17T02:35:29.580Z,94549.70
2019-05-17T02:38:02.815Z,94553.64
2019-05-17T02:40:34.855Z,94554.81
2019-05-17T02:43:06.858Z,94556.66
2019-05-17T02:45:39.050Z,94551.12
2019-05-17T02:48:13.449Z,94552.16
2019-05-17T02:50:48.099Z,94556.38
2019-05-17T02:53:18.524Z,94552.20
2019-05-17T02:55:53.708Z,94553.73
2019-05-17T02:58:23.931Z,94555.84
2019-05-17T03:00:55.830Z,94559.78
2019-05-17T03:03:28.041Z,94554.77
2019-05-17T03:06:02.870Z,94549.99
2019-05-17T03:08:34.532Z,94551.28
2019-05-17T03:11:06.509Z,94543.61
2019-05-17T03:13:38.258Z,94550.48
2019-05-17T03:16:09.698Z,94550.95
2019-05-17T03:18:43.871Z,94551.72
2019-05-17T03:21:15.062Z,94551.60
2019-05-17T03:23:46.977Z,94555.86
2019-05-17T03:26:18.705Z,94552.72
2019-05-17T03:28:53.559Z,94548.27
2019-05-17T03:31:26.251Z,94553.09
2019-05-17T03:33:57.966Z,94555.22
2019-05-17T03:36:35.506Z,94558.50
2019-05-17T03:39:03.421Z,94563.52
2019-05-17T03:41:35.187Z,94563.84
2019-05-17T03:44:07.275Z,94569.50
2019-05-17T03:46:42.347Z,94562.92
2019-05-17T03:49:13.280Z,94562.12
2019-05-17T03:51:45.099Z,94569.63
2019-05-17T03:54:22.414Z,94570.75
2019-05-17T03:56:54.104Z,94575.00
2019-05-17T03:59:26.030Z,94565.33
2019-05-17T04:01:57.644Z,94569.30
2019-05-17T04:04:32.901Z,94566.37
2019-05-17T04:07:03.385Z,94565.13
2019-05-17T04:09:37.770Z,94568.38
2019-05-17T04:12:08.841Z,94565.38
2019-05-17T04:14:42.871Z,94565.80
2019-05-17T04:17:14.335Z,94576.41
2019-05-17T04:19:47.271Z,94572.70
2019-05-17T04:22:19.118Z,94569.81
2019-05-17T04:24:52.548Z,94571.63
2019-05-17T04:27:23.102Z,94570.30
2019-05-17T04:29:55.038Z,94564.03
2019-05-17T04:32:26.949Z,94565.04
2019-05-17T04:34:58.692Z,94574.02
2019-05-17T04:37:33.359Z,94573.59
2019-05-17T04:40:03.996Z,94577.78
2019-05-17T04:42:35.827Z,94582.63
2019-05-17T04:45:07.720Z,94579.77
2019-05-17T04:47:39.431Z,94582.17
2019-05-17T04:50:13.522Z,94582.17
2019-05-17T04:52:45.576Z,94582.27
2019-05-17T04:55:17.653Z,94579.53
2019-05-17T04:57:52.861Z,94583.57
2019-05-17T05:00:23.465Z,94582.33
2019-05-17T05:02:55.396Z,94578.27
2019-05-17T05:05:26.907Z,94582.09
2019-05-17T05:07:58.341Z,94586.22
2019-05-17T05:10:32.939Z,94588.02
2019-05-17T05:13:03.672Z,94589.80
2019-05-17T05:15:44.019Z,94590.27
2019-05-17T05:18:15.497Z,94591.09
2019-05-17T05:20:47.574Z,94593.25
2019-05-17T05:23:19.186Z,94595.38
2019-05-17T05:25:52.254Z,94595.88
2019-05-17T05:28:22.972Z,94598.22
2019-05-17T05:30:54.592Z,94599.24
2019-05-17T05:33:26.237Z,94599.85
2019-05-17T05:35:58.156Z,94596.98
2019-05-17T05:38:31.803Z,94600.56
2019-05-17T05:41:02.127Z,94596.13
2019-05-17T05:43:33.874Z,94601.12
2019-05-17T05:46:05.837Z,94593.69
2019-05-17T05:48:37.716Z,94596.42
2019-05-17T05:51:09.501Z,94595.63
2019-05-17T05:53:41.886Z,94605.61
2019-05-17T05:56:13.753Z,94602.73
2019-05-17T05:58:46.879Z,94599.05
2019-05-17T06:01:18.693Z,94592.48
2019-05-17T06:03:52.019Z,94592.48
2019-05-17T06:06:24.166Z,94597.39
2019-05-17T06:08:55.767Z,94596.13
2019-05-17T06:11:27.513Z,94597.06
2019-05-17T06:14:01.437Z,94594.73
2019-05-17T06:16:32.150Z,94589.53
2019-05-17T06:19:04.120Z,94587.74
2019-05-17T06:21:36.348Z,94593.09
2019-05-17T06:24:08.270Z,94587.02
2019-05-17T06:26:42.179Z,94587.88
2019-05-17T06:29:13.590Z,94586.30
2019-05-17T06:31:45.223Z,94583.65
2019-05-17T06:34:16.872Z,94591.38
2019-05-17T06:36:48.666Z,94593.23
2019-05-17T06:39:22.385Z,94588.39
2019-05-17T06:41:53.743Z,94594.97
2019-05-17T06:44:25.702Z,94589.70
2019-05-17T06:46:57.373Z,94588.63
2019-05-17T06:49:29.019Z,94582.50
2019-05-17T06:52:02.402Z,94583.86
2019-05-17T06:54:34.258Z,94587.23
2019-05-17T06:57:05.920Z,94587.14
2019-05-17T06:59:37.365Z,94590.03
2019-05-17T07:02:10.400Z,94585.64
2019-05-17T07:04:42.423Z,94585.33
2019-05-17T07:07:30.633Z,94592.60
2019-05-17T07:10:02.848Z,94589.22
2019-05-17T07:12:34.746Z,94593.00
2019-05-17T07:15:07.473Z,94590.64
2019-05-17T07:17:42.291Z,94580.63
2019-05-17T07:20:14.015Z,94585.92
2019-05-17T07:22:45.835Z,94595.33
2019-05-17T07:25:19.769Z,94591.78
2019-05-17T07:27:52.767Z,94591.30
2019-05-17T07:30:25.339Z,94584.36
2019-05-17T07:32:56.720Z,94580.19
2019-05-17T07:35:30.014Z,94583.66
2019-05-17T07:38:02.359Z,94585.77
2019-05-17T07:40:34.001Z,94582.50
2019-05-17T07:43:10.836Z,94574.31
2019-05-17T07:45:40.409Z,94577.14
2019-05-17T07:48:12.508Z,94576.89
2019-05-17T07:50:44.001Z,94576.34
2019-05-17T07:53:15.960Z,94574.44
2019-05-17T07:55:47.304Z,94575.34
2019-05-17T07:58:21.403Z,94574.56
2019-05-17T08:00:52.749Z,94567.69
2019-05-17T08:03:25.106Z,94574.39
2019-05-17T08:05:56.882Z,94579.02
2019-05-17T08:08:31.063Z,94576.75
2019-05-17T08:11:02.939Z,94577.88
2019-05-17T08:13:34.590Z,94573.55
2019-05-17T08:16:06.357Z,94578.64
2019-05-17T08:18:40.090Z,94578.94
2019-05-17T08:21:11.690Z,94575.56
2019-05-17T08:23:43.798Z,94575.41
2019-05-17T08:26:15.678Z,94576.29
2019-05-17T08:28:49.762Z,94577.36
2019-05-17T08:31:20.859Z,94571.05
2019-05-17T08:33:52.530Z,94568.47
2019-05-17T08:36:24.269Z,94572.14
2019-05-17T08:38:56.337Z,94573.31
2019-05-17T08:41:30.834Z,94569.69
2019-05-17T08:44:01.764Z,94570.79
2019-05-17T08:46:33.459Z,94562.64
2019-05-17T08:49:05.294Z,94563.98
2019-05-17T08:51:39.503Z,94555.59
2019-05-17T08:54:10.544Z,94562.56
2019-05-17T08:56:42.675Z,94557.97
2019-05-17T08:59:14.247Z,94550.58
2019-05-17T09:01:46.039Z,94554.03
2019-05-17T09:04:17.516Z,94553.06
2019-05-17T09:06:50.496Z,94550.31
2019-05-17T09:09:22.110Z,94551.81
2019-05-17T09:11:54.353Z,94552.56
2019-05-17T09:14:26.330Z,94539.32
2019-05-17T09:17:00.402Z,94536.91
2019-05-17T09:19:32.346Z,94532.70
2019-05-17T09:22:04.122Z,94537.41
2019-05-17T09:24:35.805Z,94527.00
2019-05-17T09:27:10.002Z,94529.45
2019-05-17T09:29:41.088Z,94522.42
2019-05-17T09:32:12.899Z,94525.84
2019-05-17T09:34:44.500Z,94523.28
2019-05-17T09:37:19.062Z,94525.36
2019-05-17T09:39:49.397Z,94527.67
2019-05-17T09:42:21.106Z,94522.56
2019-05-17T09:44:52.910Z,94531.94
2019-05-17T09:47:24.719Z,94530.78
2019-05-17T09:49:56.381Z,94528.83
2019-05-17T09:52:29.347Z,94531.05
2019-05-17T09:55:01.178Z,94526.95
2019-05-17T09:57:33.373Z,94527.98
2019-05-17T10:00:05.695Z,94530.67
2019-05-17T10:02:40.162Z,94525.08
2019-05-17T10:05:12.573Z,94525.60
2019-05-17T10:07:44.414Z,94521.19
2019-05-17T10:10:16.359Z,94514.61
2019-05-17T10:12:49.550Z,94516.53
2019-05-17T10:15:21.455Z,94516.20
2019-05-17T10:17:53.411Z,94510.81
2019-05-17T10:20:25.391Z,94510.66
2019-05-17T10:22:59.510Z,94509.19
2019-05-17T10:25:31.160Z,94514.17
2019-05-17T10:28:03.265Z,94503.27
2019-05-17T10:30:35.145Z,94497.67
2019-05-17T10:33:09.558Z,94505.75
2019-05-17T10:35:41.003Z,94502.34
2019-05-17T10:38:12.907Z,94508.24
2019-05-17T10:40:44.757Z,94504.28
2019-05-17T10:43:16.799Z,94500.44
2019-05-17T10:45:48.704Z,94497.64
2019-05-17T10:48:21.225Z,94492.66
2019-05-17T10:50:53.193Z,94488.35
2019-05-17T10:53:24.981Z,94491.07
2019-05-17T10:55:56.774Z,94490.82
2019-05-17T10:58:29.819Z,94483.34
2019-05-17T11:01:01.368Z,94483.68
2019-05-17T11:03:33.996Z,94483.23
2019-05-17T11:06:06.064Z,94487.42
2019-05-17T11:08:37.738Z,94484.80
2019-05-17T11:11:10.185Z,94479.06
2019-05-17T11:13:41.856Z,94475.03
2019-05-17T11:16:13.595Z,94470.48
2019-05-17T11:18:46.507Z,94464.22
2019-05-17T11:21:18.643Z,94475.98
2019-05-17T11:23:50.384Z,94477.41
2019-05-17T11:26:22.061Z,94477.16
2019-05-17T11:28:54.104Z,94483.36
2019-05-17T11:31:25.735Z,94476.88
2019-05-17T11:33:57.765Z,94480.88
2019-05-17T11:36:29.321Z,94480.75
2019-05-17T11:39:00.963Z,94470.09
2019-05-17T11:41:34.062Z,94465.02
2019-05-17T11:44:05.979Z,94465.79
2019-05-17T11:46:37.650Z,94467.84
2019-05-17T11:49:09.236Z,94470.21
2019-05-17T11:51:40.900Z,94478.63
2019-05-17T11:54:12.450Z,94474.56
2019-05-17T11:56:44.389Z,94466.41
2019-05-17T11:59:16.002Z,94468.45
2019-05-17T12:01:47.526Z,94467.97
2019-05-17T12:04:18.886Z,94467.34
2019-05-17T12:06:51.833Z,94467.17
2019-05-17T12:09:36.542Z,94467.01
2019-05-17T12:11:57.439Z,94467.01
2019-05-17T12:14:29.237Z,94468.08
2019-05-17T12:17:01.252Z,94467.11
2019-05-17T12:19:32.972Z,94464.17
2019-05-17T12:22:04.784Z,94468.03
2019-05-17T12:24:36.609Z,94465.06
2019-05-17T12:27:08.528Z,94461.17
2019-05-17T12:29:40.062Z,94466.16
2019-05-17T12:32:16.540Z,94455.44
2019-05-17T12:34:44.884Z,94466.81
2019-05-17T12:37:16.609Z,94467.08
2019-05-17T12:39:51.282Z,94462.89
2019-05-17T12:42:23.279Z,94449.98
2019-05-17T12:44:54.836Z,94447.44
2019-05-17T12:47:26.685Z,94450.08
2019-05-17T12:49:58.415Z,94437.73
2019-05-17T12:52:30.207Z,94436.25
2019-05-17T12:55:02.058Z,94441.03
2019-05-17T12:57:33.891Z,94441.72
2019-05-17T13:00:06.132Z,94437.42
2019-05-17T13:02:38.172Z,94438.30
2019-05-17T13:05:10.374Z,94431.53
2019-05-17T13:07:43.258Z,94416.68
2019-05-17T13:10:14.914Z,94414.47
2019-05-17T13:12:47.825Z,94416.28
2019-05-17T13:15:19.704Z,94407.55
2019-05-17T13:17:51.338Z,94403.16
2019-05-17T13:20:23.181Z,94392.80
2019-05-17T13:22:55.251Z,94387.31
2019-05-17T13:25:27.052Z,94389.09
2019-05-17T13:27:58.431Z,94381.42
2019-05-17T13:30:30.442Z,94380.60
2019-05-17T13:33:02.030Z,94379.49
2019-05-17T13:35:33.738Z,94367.38
2019-05-17T13:38:05.539Z,94365.88
2019-05-17T13:40:39.827Z,94370.61
2019-05-17T13:43:11.127Z,94361.39
2019-05-17T13:45:43.946Z,94362.47
2019-05-17T13:48:16.279Z,94363.53
2019-05-17T13:50:51.621Z,94373.79
2019-05-17T13:53:21.348Z,94366.81
2019-05-17T13:55:52.881Z,94374.59
2019-05-17T13:58:24.652Z,94366.36
2019-05-17T14:00:56.338Z,94372.44
2019-05-17T14:03:28.174Z,94378.81
2019-05-17T14:06:00.705Z,94380.28
2019-05-17T14:08:33.653Z,94387.98
2019-05-17T14:11:05.427Z,94389.28
2019-05-17T14:13:37.091Z,94392.13
2019-05-17T14:16:08.948Z,94398.80
2019-05-17T14:18:40.708Z,94402.77
2019-05-17T14:21:12.344Z,94401.33
2019-05-17T14:23:44.211Z,94391.87
2019-05-17T14:26:15.955Z,94400.19
2019-05-17T14:28:47.499Z,94410.00
2019-05-17T14:31:19.286Z,94400.23
2019-05-17T14:33:51.629Z,94397.14
2019-05-17T14:36:23.279Z,94400.76
2019-05-17T14:38:54.959Z,94416.33
2019-05-17T14:41:26.594Z,94422.45
2019-05-17T14:43:58.446Z,94414.67
2019-05-17T14:46:30.158Z,94426.08
2019-05-17T14:49:01.814Z,94419.89
2019-05-17T14:51:33.384Z,94422.37
2019-05-17T14:54:05.415Z,94423.89
2019-05-17T14:56:37.268Z,94422.47
2019-05-17T14:59:09.104Z,94426.42
2019-05-17T15:01:41.036Z,94432.05
2019-05-17T15:04:12.755Z,94432.30
2019-05-17T15:06:44.330Z,94441.03
2019-05-17T15:09:17.039Z,94441.75
2019-05-17T15:11:48.625Z,94447.29
2019-05-17T15:14:20.322Z,94444.48
2019-05-17T15:16:52.700Z,94454.20
2019-05-17T15:19:24.479Z,94455.52
2019-05-17T15:21:57.223Z,94444.73
2019-05-17T15:24:28.836Z,94442.05
2019-05-17T15:27:05.427Z,94439.95
2019-05-17T15:29:33.429Z,94445.42
2019-05-17T15:32:05.183Z,94452.92
2019-05-17T15:34:36.996Z,94460.95
2019-05-17T15:37:10.045Z,94460.91
2019-05-17T15:39:41.663Z,94461.89
2019-05-17T15:42:13.408Z,94477.81
2019-05-17T15:44:45.338Z,94484.36
2019-05-17T15:47:18.316Z,94477.73
2019-05-17T15:49:49.914Z,94482.85
2019-05-17T15:52:21.535Z,94483.48
2019-05-17T15:54:53.436Z,94472.09
2019-05-17T15:57:25.344Z,94472.38
2019-05-17T15:59:57.075Z,94463.97
2019-05-17T16:02:28.869Z,94462.38
2019-05-17T16:05:00.556Z,94465.57
2019-05-17T16:07:32.707Z,94467.63
2019-05-17T16:10:04.495Z,94464.89
2019-05-17T16:12:36.170Z,94470.07
2019-05-17T16:15:08.793Z,94470.75
2019-05-17T16:17:40.691Z,94473.06
2019-05-17T16:20:16.812Z,94468.73
2019-05-17T16:22:47.484Z,94470.86
2019-05-17T16:25:20.352Z,94467.26
2019-05-17T16:27:52.079Z,94473.41
2019-05-17T16:30:23.830Z,94478.88
2019-05-17T16:32:55.670Z,94482.80
2019-05-17T16:35:27.361Z,94488.75
2019-05-17T16:37:58.968Z,94486.67
2019-05-17T16:40:30.675Z,94495.31
2019-05-17T16:43:16.770Z,94486.92
2019-05-17T16:45:35.599Z,94484.78
2019-05-17T16:48:07.114Z,94485.36
2019-05-17T16:50:38.990Z,94476.88
2019-05-17T16:53:10.872Z,94479.27
2019-05-17T16:55:42.680Z,94478.11
2019-05-17T16:58:14.324Z,94475.23
2019-05-17T17:00:47.316Z,94475.62
2019-05-17T17:03:19.314Z,94473.08
2019-05-17T17:05:51.015Z,94467.54
2019-05-17T17:08:22.589Z,94465.48
2019-05-17T17:10:54.288Z,94464.39
2019-05-17T17:13:33.067Z,94467.09
2019-05-17T17:15:59.295Z,94461.67
2019-05-17T17:18:30.998Z,94474.72
2019-05-17T17:21:02.905Z,94479.85
2019-05-17T17:23:34.572Z,94482.37
2019-05-17T17:26:06.455Z,94489.78
2019-05-17T17:28:38.308Z,94494.88
2019-05-17T17:31:13.525Z,94489.13
2019-05-17T17:33:45.300Z,94497.90
2019-05-17T17:36:19.424Z,94494.55
2019-05-17T17:38:50.662Z,94491.66
2019-05-17T17:41:22.373Z,94492.74
2019-05-17T17:43:58.528Z,94501.77
2019-05-17T17:46:27.468Z,94499.23
2019-05-17T17:48:59.232Z,94497.66
2019-05-17T17:51:31.090Z,94497.09
2019-05-17T17:54:02.793Z,94501.69
2019-05-17T17:56:34.630Z,94504.60
2019-05-17T17:59:06.688Z,94512.63
2019-05-17T18:01:38.251Z,94523.02
2019-05-17T18:04:10.028Z,94531.66
2019-05-17T18:06:42.054Z,94527.19
2019-05-17T18:09:13.826Z,94531.27
2019-05-17T18:11:45.537Z,94533.83
2019-05-17T18:14:17.293Z,94547.11
2019-05-17T18:16:49.108Z,94552.92
2019-05-17T18:19:20.508Z,94555.70
2019-05-17T18:21:52.249Z,94561.05
2019-05-17T18:24:23.986Z,94561.03
2019-05-17T18:26:55.525Z,94564.77
2019-05-17T18:29:27.119Z,94566.10
2019-05-17T18:31:59.031Z,94562.11
2019-05-17T18:34:30.673Z,94562.09
2019-05-17T18:37:02.418Z,94571.17
2019-05-17T18:39:34.216Z,94570.64
2019-05-17T18:42:06.292Z,94562.38
2019-05-17T18:44:38.032Z,94562.11
2019-05-17T18:47:09.785Z,94558.64
2019-05-17T18:49:41.553Z,94570.15
2019-05-17T18:52:13.466Z,94572.30
2019-05-17T18:54:45.314Z,94578.70
2019-05-17T18:57:17.223Z,94561.66
2019-05-17T18:59:48.793Z,94564.64
2019-05-17T19:02:20.355Z,94553.97
2019-05-17T19:04:52.297Z,94552.10
2019-05-17T19:07:26.279Z,94563.03
2019-05-17T19:09:58.093Z,94564.64
2019-05-17T19:12:29.971Z,94559.57
2019-05-17T19:15:01.758Z,94566.83
2019-05-17T19:17:34.716Z,94567.36
2019-05-17T19:20:06.959Z,94575.41
2019-05-17T19:22:38.626Z,94579.36
2019-05-17T19:25:11.127Z,94578.07
2019-05-17T19:27:42.851Z,94581.01
2019-05-17T19:30:15.142Z,94592.41
2019-05-17T19:32:46.864Z,94587.38
2019-05-17T19:35:18.684Z,94586.84
2019-05-17T19:37:50.369Z,94588.98
2019-05-17T19:40:22.536Z,94589.77
2019-05-17T19:42:54.462Z,94577.23
2019-05-17T19:45:26.364Z,94578.33
2019-05-17T19:47:58.154Z,94584.43
2019-05-17T19:50:29.655Z,94596.35
2019-05-17T19:53:01.194Z,94595.01
2019-05-17T19:55:33.456Z,94590.02
2019-05-17T19:58:05.672Z,94581.75
2019-05-17T20:00:37.680Z,94585.76
2019-05-17T20:03:09.770Z,94575.92
2019-05-17T20:05:41.930Z,94589.73
2019-05-17T20:08:13.605Z,94583.88
2019-05-17T20:10:46.353Z,94581.48
2019-05-17T20:13:18.323Z,94588.67
2019-05-17T20:15:49.927Z,94586.00
2019-05-17T20:18:22.060Z,94587.28
2019-05-17T20:20:53.899Z,94588.53
2019-05-17T20:23:25.639Z,94588.42
2019-05-17T20:25:57.339Z,94586.97
2019-05-17T20:28:29.198Z,94582.33
2019-05-17T20:31:00.863Z,94571.91
2019-05-17T20:33:32.734Z,94574.52
2019-05-17T20:36:04.737Z,94569.23
2019-05-17T20:38:36.402Z,94571.59
2019-05-17T20:41:07.889Z,94577.41
2019-05-17T20:43:39.810Z,94571.48
2019-05-17T20:46:11.755Z,94567.92
2019-05-17T20:48:43.807Z,94561.16
2019-05-17T20:51:15.877Z,94571.94
2019-05-17T20:53:47.487Z,94564.36
2019-05-17T20:56:31.949Z,94565.96
2019-05-17T20:58:52.721Z,94560.69
2019-05-17T21:01:24.482Z,94563.42
2019-05-17T21:03:56.068Z,94566.66
2019-05-17T21:06:27.720Z,94566.63
2019-05-17T21:09:00.507Z,94560.25
2019-05-17T21:11:35.694Z,94570.46
2019-05-17T21:14:07.362Z,94577.56
2019-05-17T21:16:39.196Z,94574.60
2019-05-17T21:19:10.959Z,94573.17
2019-05-17T21:21:42.652Z,94566.72
2019-05-17T21:24:14.241Z,94573.87
2019-05-17T21:26:45.973Z,94575.43
2019-05-17T21:29:17.380Z,94570.41
2019-05-17T21:31:49.204Z,94559.81
2019-05-17T21:34:21.153Z,94562.05
2019-05-17T21:36:52.869Z,94563.34
2019-05-17T21:39:24.596Z,94569.38
2019-05-17T21:41:56.470Z,94563.52
2019-05-17T21:44:27.982Z,94562.33
2019-05-17T21:47:04.703Z,94572.54
2019-05-17T21:49:31.654Z,94568.21
2019-05-17T21:52:03.441Z,94567.02
2019-05-17T21:54:35.262Z,94570.34
2019-05-17T21:57:07.231Z,94574.47
2019-05-17T21:59:38.956Z,94573.98
2019-05-17T22:02:10.682Z,94571.63
2019-05-17T22:04:42.381Z,94576.52
2019-05-17T22:07:14.544Z,94579.11
2019-05-17T22:09:46.526Z,94574.67
2019-05-17T22:12:18.495Z,94579.69
2019-05-17T22:14:50.142Z,94585.73
2019-05-17T22:17:22.375Z,94584.13
2019-05-17T22:19:53.842Z,94577.75
2019-05-17T22:22:25.544Z,94577.84
2019-05-17T22:24:57.613Z,94573.45
2019-05-17T22:27:30.145Z,94572.08
2019-05-17T22:30:01.950Z,94571.48
2019-05-17T22:32:33.756Z,94570.86
2019-05-17T22:35:06.039Z,94568.83
2019-05-17T22:37:37.731Z,94571.48
2019-05-17T22:40:09.744Z,94574.00
2019-05-17T22:42:41.346Z,94575.54
2019-05-17T22:45:13.435Z,94580.41
2019-05-17T22:47:45.207Z,94575.31
2019-05-17T22:50:16.722Z,94570.21
2019-05-17T22:52:48.486Z,94570.26
2019-05-17T22:55:20.313Z,94561.38
2019-05-17T22:57:52.262Z,94565.67
2019-05-17T23:00:24.215Z,94555.12
2019-05-17T23:02:55.994Z,94554.23
2019-05-17T23:05:27.735Z,94553.32
2019-05-17T23:07:59.926Z,94544.81
2019-05-17T23:10:34.994Z,94546.78
2019-05-17T23:13:04.955Z,94537.59
2019-05-17T23:15:55.368Z,94534.14
2019-05-17T23:18:27.235Z,94540.08
2019-05-17T23:20:58.921Z,94538.48
2019-05-17T23:23:30.621Z,94540.20
2019-05-17T23:26:02.486Z,94540.44
2019-05-17T23:28:34.186Z,94546.52
2019-05-17T23:31:06.064Z,94546.63
2019-05-17T23:33:37.845Z,94539.59
2019-05-17T23:36:09.443Z,94541.88
2019-05-17T23:38:41.110Z,94538.31
2019-05-17T23:41:12.870Z,94547.80
2019-05-17T23:43:44.749Z,94545.25
2019-05-17T23:46:16.458Z,94549.78
2019-05-17T23:48:48.127Z,94550.11
2019-05-17T23:51:19.578Z,94552.23
2019-05-17T23:53:51.262Z,94538.79
2019-05-17T23:56:22.857Z,94544.34
2019-05-17T23:58:54.739Z,94544.36
